sensor_id;sensor_type;location;lat;lon;timestamp;temperature;humidity
47162;DHT22;32921;53.256;8.198;2023-08-06T11:13:03;15.30;99.90
47162;DHT22;32921;53.256;8.198;2023-08-06T11:15:30;24.70;92.60
47162;DHT22;32921;53.256;8.198;2023-08-06T11:17:56;25.10;93.40
47162;DHT22;32921;53.256;8.198;2023-08-06T11:20:22;25.80;90.50
47162;DHT22;32921;53.256;8.198;2023-08-06T11:22:48;25.90;90.20
47162;DHT22;32921;53.256;8.198;2023-08-06T11:25:13;26.50;89.10
47162;DHT22;32921;53.256;8.198;2023-08-06T11:27:39;26.90;88.20
47162;DHT22;32921;53.256;8.198;2023-08-06T11:30:05;27.60;84.40
47162;DHT22;32921;53.256;8.198;2023-08-06T11:32:31;27.80;83.30
47162;DHT22;32921;53.256;8.198;2023-08-06T11:34:58;28.20;83.00
47162;DHT22;32921;53.256;8.198;2023-08-06T11:37:23;27.80;82.20
47162;DHT22;32921;53.256;8.198;2023-08-06T11:39:50;27.90;80.60
47162;DHT22;32921;53.256;8.198;2023-08-06T11:42:16;27.50;80.20
47162;DHT22;32921;53.256;8.198;2023-08-06T11:44:42;27.60;82.00
47162;DHT22;32921;53.256;8.198;2023-08-06T11:47:13;28.80;77.40
47162;DHT22;32921;53.256;8.198;2023-08-06T11:49:49;29.30;76.80
47162;DHT22;32921;53.256;8.198;2023-08-06T11:52:24;28.10;76.50
47162;DHT22;32921;53.256;8.198;2023-08-06T11:55:01;27.30;76.50
47162;DHT22;32921;53.256;8.198;2023-08-06T11:57:36;27.50;76.30
47162;DHT22;32921;53.256;8.198;2023-08-06T12:00:14;28.30;75.10
47162;DHT22;32921;53.256;8.198;2023-08-06T12:02:40;27.70;74.10
47162;DHT22;32921;53.256;8.198;2023-08-06T12:05:14;28.20;75.30
47162;DHT22;32921;53.256;8.198;2023-08-06T12:07:56;28.90;74.70
47162;DHT22;32921;53.256;8.198;2023-08-06T12:10:23;28.80;72.20
47162;DHT22;32921;53.256;8.198;2023-08-06T12:12:49;28.50;74.40
47162;DHT22;32921;53.256;8.198;2023-08-06T12:15:15;28.10;73.30
47162;DHT22;32921;53.256;8.198;2023-08-06T12:17:41;26.90;76.70
47162;DHT22;32921;53.256;8.198;2023-08-06T12:20:07;27.10;77.30
47162;DHT22;32921;53.256;8.198;2023-08-06T12:22:34;28.10;73.40
47162;DHT22;32921;53.256;8.198;2023-08-06T12:25:12;27.80;73.20
47162;DHT22;32921;53.256;8.198;2023-08-06T12:27:43;28.60;72.50
47162;DHT22;32921;53.256;8.198;2023-08-06T12:30:10;28.20;69.40
47162;DHT22;32921;53.256;8.198;2023-08-06T12:32:36;28.10;72.70
47162;DHT22;32921;53.256;8.198;2023-08-06T12:35:02;28.40;71.10
47162;DHT22;32921;53.256;8.198;2023-08-06T12:37:28;28.30;69.40
47162;DHT22;32921;53.256;8.198;2023-08-06T12:39:54;27.80;73.00
47162;DHT22;32921;53.256;8.198;2023-08-06T12:42:20;28.00;71.70
47162;DHT22;32921;53.256;8.198;2023-08-06T12:44:45;28.40;71.20
47162;DHT22;32921;53.256;8.198;2023-08-06T12:47:11;27.30;73.00
47162;DHT22;32921;53.256;8.198;2023-08-06T12:49:36;27.70;72.70
47162;DHT22;32921;53.256;8.198;2023-08-06T12:52:02;27.70;71.50
47162;DHT22;32921;53.256;8.198;2023-08-06T12:54:30;27.70;74.10
47162;DHT22;32921;53.256;8.198;2023-08-06T12:57:02;27.90;72.00
47162;DHT22;32921;53.256;8.198;2023-08-06T12:59:27;28.50;73.40
47162;DHT22;32921;53.256;8.198;2023-08-06T13:01:53;28.50;72.30
47162;DHT22;32921;53.256;8.198;2023-08-06T13:04:18;28.70;71.90
47162;DHT22;32921;53.256;8.198;2023-08-06T13:06:44;27.90;73.10
47162;DHT22;32921;53.256;8.198;2023-08-06T13:09:09;26.70;74.80
47162;DHT22;32921;53.256;8.198;2023-08-06T13:11:36;26.30;77.00
47162;DHT22;32921;53.256;8.198;2023-08-06T13:14:08;26.20;78.90
47162;DHT22;32921;53.256;8.198;2023-08-06T13:16:34;26.10;79.20
47162;DHT22;32921;53.256;8.198;2023-08-06T13:19:00;26.40;78.10
47162;DHT22;32921;53.256;8.198;2023-08-06T13:21:58;27.40;74.80
47162;DHT22;32921;53.256;8.198;2023-08-06T13:24:24;26.80;76.70
47162;DHT22;32921;53.256;8.198;2023-08-06T13:26:50;26.60;74.50
47162;DHT22;32921;53.256;8.198;2023-08-06T13:29:15;26.50;74.30
47162;DHT22;32921;53.256;8.198;2023-08-06T13:31:41;26.00;77.90
47162;DHT22;32921;53.256;8.198;2023-08-06T13:34:06;26.50;77.20
47162;DHT22;32921;53.256;8.198;2023-08-06T13:36:32;26.50;75.90
47162;DHT22;32921;53.256;8.198;2023-08-06T13:38:57;26.10;77.30
47162;DHT22;32921;53.256;8.198;2023-08-06T13:41:23;26.40;79.00
47162;DHT22;32921;53.256;8.198;2023-08-06T13:43:49;26.60;77.80
47162;DHT22;32921;53.256;8.198;2023-08-06T13:46:15;25.60;77.70
47162;DHT22;32921;53.256;8.198;2023-08-06T13:48:46;24.80;83.00
47162;DHT22;32921;53.256;8.198;2023-08-06T13:51:12;25.80;83.10
47162;DHT22;32921;53.256;8.198;2023-08-06T13:53:38;26.20;78.00
47162;DHT22;32921;53.256;8.198;2023-08-06T13:56:05;25.70;79.00
47162;DHT22;32921;53.256;8.198;2023-08-06T13:58:32;25.60;79.10
47162;DHT22;32921;53.256;8.198;2023-08-06T14:00:57;25.50;77.40
47162;DHT22;32921;53.256;8.198;2023-08-06T14:03:23;26.20;78.50
47162;DHT22;32921;53.256;8.198;2023-08-06T14:05:49;27.00;75.90
47162;DHT22;32921;53.256;8.198;2023-08-06T14:08:15;27.70;74.10
47162;DHT22;32921;53.256;8.198;2023-08-06T14:10:43;27.80;73.30
47162;DHT22;32921;53.256;8.198;2023-08-06T14:13:09;27.30;71.90
47162;DHT22;32921;53.256;8.198;2023-08-06T14:15:35;26.90;76.80
47162;DHT22;32921;53.256;8.198;2023-08-06T14:18:01;26.80;76.60
47162;DHT22;32921;53.256;8.198;2023-08-06T14:20:27;27.00;77.00
47162;DHT22;32921;53.256;8.198;2023-08-06T14:22:53;27.30;74.60
47162;DHT22;32921;53.256;8.198;2023-08-06T14:25:19;27.10;74.20
47162;DHT22;32921;53.256;8.198;2023-08-06T14:27:44;27.30;74.80
47162;DHT22;32921;53.256;8.198;2023-08-06T14:30:10;26.90;73.10
47162;DHT22;32921;53.256;8.198;2023-08-06T14:32:36;26.30;75.40
47162;DHT22;32921;53.256;8.198;2023-08-06T14:35:01;27.00;75.20
47162;DHT22;32921;53.256;8.198;2023-08-06T14:37:27;28.10;73.30
47162;DHT22;32921;53.256;8.198;2023-08-06T14:39:52;28.10;71.10
47162;DHT22;32921;53.256;8.198;2023-08-06T14:42:18;26.90;72.90
47162;DHT22;32921;53.256;8.198;2023-08-06T14:44:43;26.10;76.50
47162;DHT22;32921;53.256;8.198;2023-08-06T14:47:09;25.90;79.50
47162;DHT22;32921;53.256;8.198;2023-08-06T14:49:35;25.60;80.90
47162;DHT22;32921;53.256;8.198;2023-08-06T14:52:00;26.00;77.60
47162;DHT22;32921;53.256;8.198;2023-08-06T14:54:27;26.40;78.10
47162;DHT22;32921;53.256;8.198;2023-08-06T14:56:53;25.90;77.80
47162;DHT22;32921;53.256;8.198;2023-08-06T14:59:18;25.80;78.10
47162;DHT22;32921;53.256;8.198;2023-08-06T15:01:44;25.30;81.10
47162;DHT22;32921;53.256;8.198;2023-08-06T15:04:09;25.70;82.30
47162;DHT22;32921;53.256;8.198;2023-08-06T15:06:35;26.40;79.20
47162;DHT22;32921;53.256;8.198;2023-08-06T15:09:00;25.90;79.10
47162;DHT22;32921;53.256;8.198;2023-08-06T15:11:26;25.80;81.40
47162;DHT22;32921;53.256;8.198;2023-08-06T15:13:52;25.80;80.60
47162;DHT22;32921;53.256;8.198;2023-08-06T15:16:18;26.30;79.00
47162;DHT22;32921;53.256;8.198;2023-08-06T15:18:43;27.90;75.90
47162;DHT22;32921;53.256;8.198;2023-08-06T15:21:09;28.50;72.40
47162;DHT22;32921;53.256;8.198;2023-08-06T15:23:35;28.30;72.30
47162;DHT22;32921;53.256;8.198;2023-08-06T15:26:01;27.70;72.60
47162;DHT22;32921;53.256;8.198;2023-08-06T15:28:27;27.30;74.10
47162;DHT22;32921;53.256;8.198;2023-08-06T15:30:54;27.00;74.20
47162;DHT22;32921;53.256;8.198;2023-08-06T15:33:20;25.70;77.90
47162;DHT22;32921;53.256;8.198;2023-08-06T15:35:46;24.20;84.80
47162;DHT22;32921;53.256;8.198;2023-08-06T15:38:12;24.10;85.90
47162;DHT22;32921;53.256;8.198;2023-08-06T15:40:38;23.50;89.50
47162;DHT22;32921;53.256;8.198;2023-08-06T15:43:03;23.70;90.40
47162;DHT22;32921;53.256;8.198;2023-08-06T15:45:29;23.40;90.80
47162;DHT22;32921;53.256;8.198;2023-08-06T15:47:54;23.00;92.00
47162;DHT22;32921;53.256;8.198;2023-08-06T15:50:21;22.60;95.50
47162;DHT22;32921;53.256;8.198;2023-08-06T15:52:47;22.60;97.20
47162;DHT22;32921;53.256;8.198;2023-08-06T15:55:13;22.80;96.50
47162;DHT22;32921;53.256;8.198;2023-08-06T15:57:38;22.00;99.80
47162;DHT22;32921;53.256;8.198;2023-08-06T16:00:04;21.90;99.90
47162;DHT22;32921;53.256;8.198;2023-08-06T16:02:30;22.40;99.90
47162;DHT22;32921;53.256;8.198;2023-08-06T16:04:56;22.90;97.40
47162;DHT22;32921;53.256;8.198;2023-08-06T16:07:22;22.50;97.60
47162;DHT22;32921;53.256;8.198;2023-08-06T16:09:53;21.90;99.90
47162;DHT22;32921;53.256;8.198;2023-08-06T16:12:18;21.50;99.90
47162;DHT22;32921;53.256;8.198;2023-08-06T16:14:48;20.90;99.90
47162;DHT22;32921;53.256;8.198;2023-08-06T16:17:14;20.60;99.90
47162;DHT22;32921;53.256;8.198;2023-08-06T16:19:40;20.50;99.90
47162;DHT22;32921;53.256;8.198;2023-08-06T16:22:06;20.50;99.90
47162;DHT22;32921;53.256;8.198;2023-08-06T16:24:31;20.10;99.90
47162;DHT22;32921;53.256;8.198;2023-08-06T16:26:57;20.00;99.90
47162;DHT22;32921;53.256;8.198;2023-08-06T16:29:22;19.80;99.90
47162;DHT22;32921;53.256;8.198;2023-08-06T16:31:48;19.60;99.90
47162;DHT22;32921;53.256;8.198;2023-08-06T16:34:14;19.50;99.90
47162;DHT22;32921;53.256;8.198;2023-08-06T16:36:39;19.50;99.90
47162;DHT22;32921;53.256;8.198;2023-08-06T16:39:05;19.50;99.90
47162;DHT22;32921;53.256;8.198;2023-08-06T16:41:31;19.60;99.90
47162;DHT22;32921;53.256;8.198;2023-08-06T16:43:56;20.00;99.90
47162;DHT22;32921;53.256;8.198;2023-08-06T16:46:22;20.10;99.90
47162;DHT22;32921;53.256;8.198;2023-08-06T16:48:47;19.80;99.90
47162;DHT22;32921;53.256;8.198;2023-08-06T16:51:13;19.50;99.90
47162;DHT22;32921;53.256;8.198;2023-08-06T16:53:42;19.70;99.90
47162;DHT22;32921;53.256;8.198;2023-08-06T16:56:09;19.70;99.90
47162;DHT22;32921;53.256;8.198;2023-08-06T16:58:35;19.60;99.90
47162;DHT22;32921;53.256;8.198;2023-08-06T17:01:01;19.40;99.90
47162;DHT22;32921;53.256;8.198;2023-08-06T17:03:30;19.30;99.90
47162;DHT22;32921;53.256;8.198;2023-08-06T17:05:56;19.20;99.90
47162;DHT22;32921;53.256;8.198;2023-08-06T17:08:22;19.30;99.90
47162;DHT22;32921;53.256;8.198;2023-08-06T17:10:48;19.40;99.90
47162;DHT22;32921;53.256;8.198;2023-08-06T17:13:13;19.40;99.90
47162;DHT22;32921;53.256;8.198;2023-08-06T17:15:41;19.50;99.90
47162;DHT22;32921;53.256;8.198;2023-08-06T17:18:07;19.80;99.90
47162;DHT22;32921;53.256;8.198;2023-08-06T17:20:35;21.20;99.90
47162;DHT22;32921;53.256;8.198;2023-08-06T17:23:00;21.70;99.90
47162;DHT22;32921;53.256;8.198;2023-08-06T17:25:26;21.30;99.90
47162;DHT22;32921;53.256;8.198;2023-08-06T17:27:51;20.80;99.90
47162;DHT22;32921;53.256;8.198;2023-08-06T17:30:17;20.30;99.90
47162;DHT22;32921;53.256;8.198;2023-08-06T17:32:44;20.10;99.90
47162;DHT22;32921;53.256;8.198;2023-08-06T17:35:10;19.90;99.90
47162;DHT22;32921;53.256;8.198;2023-08-06T17:37:35;19.70;99.90
47162;DHT22;32921;53.256;8.198;2023-08-06T17:40:01;19.50;99.90
47162;DHT22;32921;53.256;8.198;2023-08-06T17:42:26;19.30;99.90
47162;DHT22;32921;53.256;8.198;2023-08-06T17:44:52;19.20;99.90
47162;DHT22;32921;53.256;8.198;2023-08-06T17:47:17;19.00;99.90
47162;DHT22;32921;53.256;8.198;2023-08-06T17:49:43;18.80;99.90
47162;DHT22;32921;53.256;8.198;2023-08-06T17:52:09;18.90;99.90
47162;DHT22;32921;53.256;8.198;2023-08-06T17:54:34;18.80;99.90
47162;DHT22;32921;53.256;8.198;2023-08-06T17:57:00;18.80;99.90
47162;DHT22;32921;53.256;8.198;2023-08-06T17:59:25;18.70;99.90
47162;DHT22;32921;53.256;8.198;2023-08-06T18:01:51;18.60;99.90
47162;DHT22;32921;53.256;8.198;2023-08-06T18:04:16;18.60;99.90
47162;DHT22;32921;53.256;8.198;2023-08-06T18:06:42;18.60;99.90
47162;DHT22;32921;53.256;8.198;2023-08-06T18:09:07;18.50;99.90
47162;DHT22;32921;53.256;8.198;2023-08-06T18:11:33;18.50;99.90
47162;DHT22;32921;53.256;8.198;2023-08-06T18:13:59;18.40;99.90
47162;DHT22;32921;53.256;8.198;2023-08-06T18:16:24;18.50;99.90
47162;DHT22;32921;53.256;8.198;2023-08-06T18:18:50;18.40;99.90
47162;DHT22;32921;53.256;8.198;2023-08-06T18:21:18;18.40;99.90
47162;DHT22;32921;53.256;8.198;2023-08-06T18:23:44;18.30;99.90
47162;DHT22;32921;53.256;8.198;2023-08-06T18:26:10;18.20;99.90
47162;DHT22;32921;53.256;8.198;2023-08-06T18:28:35;18.10;99.90
47162;DHT22;32921;53.256;8.198;2023-08-06T18:31:01;18.00;99.90
47162;DHT22;32921;53.256;8.198;2023-08-06T18:33:27;17.90;99.90
47162;DHT22;32921;53.256;8.198;2023-08-06T18:35:52;17.80;99.90
47162;DHT22;32921;53.256;8.198;2023-08-06T18:38:18;17.60;99.90
47162;DHT22;32921;53.256;8.198;2023-08-06T18:40:43;17.50;99.90
47162;DHT22;32921;53.256;8.198;2023-08-06T18:43:09;17.50;99.90
47162;DHT22;32921;53.256;8.198;2023-08-06T18:45:34;17.40;99.90
47162;DHT22;32921;53.256;8.198;2023-08-06T18:48:07;17.30;99.90
47162;DHT22;32921;53.256;8.198;2023-08-06T18:50:33;17.20;99.90
47162;DHT22;32921;53.256;8.198;2023-08-06T18:53:03;17.00;99.90
47162;DHT22;32921;53.256;8.198;2023-08-06T18:55:31;17.00;99.90
47162;DHT22;32921;53.256;8.198;2023-08-06T18:57:58;16.80;99.90
47162;DHT22;32921;53.256;8.198;2023-08-06T19:00:25;16.80;99.90
47162;DHT22;32921;53.256;8.198;2023-08-06T19:02:51;16.70;99.90
47162;DHT22;32921;53.256;8.198;2023-08-06T19:05:17;16.60;99.90
47162;DHT22;32921;53.256;8.198;2023-08-06T19:07:42;16.60;99.90
47162;DHT22;32921;53.256;8.198;2023-08-06T19:10:08;16.60;99.90
47162;DHT22;32921;53.256;8.198;2023-08-06T19:12:34;16.60;99.90
47162;DHT22;32921;53.256;8.198;2023-08-06T19:14:59;16.60;99.90
47162;DHT22;32921;53.256;8.198;2023-08-06T19:17:25;16.60;99.90
47162;DHT22;32921;53.256;8.198;2023-08-06T19:19:50;16.60;99.90
47162;DHT22;32921;53.256;8.198;2023-08-06T19:22:16;16.60;99.90
47162;DHT22;32921;53.256;8.198;2023-08-06T19:24:41;16.60;99.90
47162;DHT22;32921;53.256;8.198;2023-08-06T19:27:08;16.60;99.90
47162;DHT22;32921;53.256;8.198;2023-08-06T19:29:33;16.60;99.90
47162;DHT22;32921;53.256;8.198;2023-08-06T19:31:59;16.50;99.90
47162;DHT22;32921;53.256;8.198;2023-08-06T19:34:25;16.50;99.90
47162;DHT22;32921;53.256;8.198;2023-08-06T19:36:50;16.50;99.90
47162;DHT22;32921;53.256;8.198;2023-08-06T19:39:16;16.40;99.90
47162;DHT22;32921;53.256;8.198;2023-08-06T19:41:41;16.40;99.90
47162;DHT22;32921;53.256;8.198;2023-08-06T19:44:07;16.30;99.90
47162;DHT22;32921;53.256;8.198;2023-08-06T19:46:33;16.40;99.90
47162;DHT22;32921;53.256;8.198;2023-08-06T19:48:58;16.30;99.90
47162;DHT22;32921;53.256;8.198;2023-08-06T19:51:24;16.20;99.90
47162;DHT22;32921;53.256;8.198;2023-08-06T19:53:51;16.30;99.90
47162;DHT22;32921;53.256;8.198;2023-08-06T19:56:18;16.30;99.90
47162;DHT22;32921;53.256;8.198;2023-08-06T19:58:43;16.20;99.90
47162;DHT22;32921;53.256;8.198;2023-08-06T20:01:09;16.20;99.90
47162;DHT22;32921;53.256;8.198;2023-08-06T20:03:35;16.30;99.90
47162;DHT22;32921;53.256;8.198;2023-08-06T20:06:03;16.20;99.90
47162;DHT22;32921;53.256;8.198;2023-08-06T20:08:31;16.20;99.90
47162;DHT22;32921;53.256;8.198;2023-08-06T20:10:57;16.20;99.90
47162;DHT22;32921;53.256;8.198;2023-08-06T20:13:23;16.10;99.90
47162;DHT22;32921;53.256;8.198;2023-08-06T20:15:50;16.10;99.90
47162;DHT22;32921;53.256;8.198;2023-08-06T20:18:15;16.20;99.90
47162;DHT22;32921;53.256;8.198;2023-08-06T20:20:42;16.10;99.90
47162;DHT22;32921;53.256;8.198;2023-08-06T20:23:08;16.10;99.90
47162;DHT22;32921;53.256;8.198;2023-08-06T20:25:35;16.10;99.90
47162;DHT22;32921;53.256;8.198;2023-08-06T20:28:01;16.10;99.90
47162;DHT22;32921;53.256;8.198;2023-08-06T20:30:27;16.00;99.90
47162;DHT22;32921;53.256;8.198;2023-08-06T20:32:53;16.00;99.90
47162;DHT22;32921;53.256;8.198;2023-08-06T20:35:18;15.90;99.90
47162;DHT22;32921;53.256;8.198;2023-08-06T20:37:44;15.80;99.90
47162;DHT22;32921;53.256;8.198;2023-08-06T20:40:10;15.80;99.90
47162;DHT22;32921;53.256;8.198;2023-08-06T20:42:35;15.80;99.90
47162;DHT22;32921;53.256;8.198;2023-08-06T20:45:01;15.80;99.90
47162;DHT22;32921;53.256;8.198;2023-08-06T20:47:28;15.80;99.90
47162;DHT22;32921;53.256;8.198;2023-08-06T20:49:53;15.80;99.90
47162;DHT22;32921;53.256;8.198;2023-08-06T20:52:19;15.80;99.90
47162;DHT22;32921;53.256;8.198;2023-08-06T20:54:44;15.80;99.90
47162;DHT22;32921;53.256;8.198;2023-08-06T20:57:10;15.80;99.90
47162;DHT22;32921;53.256;8.198;2023-08-06T20:59:35;15.80;99.90
47162;DHT22;32921;53.256;8.198;2023-08-06T21:02:01;15.80;99.90
47162;DHT22;32921;53.256;8.198;2023-08-06T21:04:27;15.80;99.90
47162;DHT22;32921;53.256;8.198;2023-08-06T21:06:52;15.80;99.90
47162;DHT22;32921;53.256;8.198;2023-08-06T21:09:18;15.80;99.90
47162;DHT22;32921;53.256;8.198;2023-08-06T21:11:43;15.80;99.90
47162;DHT22;32921;53.256;8.198;2023-08-06T21:14:09;15.70;99.90
47162;DHT22;32921;53.256;8.198;2023-08-06T21:16:34;15.80;99.90
47162;DHT22;32921;53.256;8.198;2023-08-06T21:19:00;15.80;99.90
47162;DHT22;32921;53.256;8.198;2023-08-06T21:21:26;15.90;99.90
47162;DHT22;32921;53.256;8.198;2023-08-06T21:23:51;15.90;99.90
47162;DHT22;32921;53.256;8.198;2023-08-06T21:26:17;15.90;99.90
47162;DHT22;32921;53.256;8.198;2023-08-06T21:28:43;15.90;99.90
47162;DHT22;32921;53.256;8.198;2023-08-06T21:31:10;15.80;99.90
47162;DHT22;32921;53.256;8.198;2023-08-06T21:33:36;15.80;99.90
47162;DHT22;32921;53.256;8.198;2023-08-06T21:36:03;15.80;99.90
47162;DHT22;32921;53.256;8.198;2023-08-06T21:38:30;15.80;99.90
47162;DHT22;32921;53.256;8.198;2023-08-06T21:41:10;15.80;99.90
47162;DHT22;32921;53.256;8.198;2023-08-06T21:43:44;15.80;99.90
47162;DHT22;32921;53.256;8.198;2023-08-06T21:46:13;15.80;99.90
47162;DHT22;32921;53.256;8.198;2023-08-06T21:48:41;15.80;99.90
47162;DHT22;32921;53.256;8.198;2023-08-06T21:51:08;15.90;99.90
47162;DHT22;32921;53.256;8.198;2023-08-06T21:53:35;15.80;99.90
47162;DHT22;32921;53.256;8.198;2023-08-06T21:56:07;15.80;99.90
47162;DHT22;32921;53.256;8.198;2023-08-06T21:58:46;15.80;99.90
47162;DHT22;32921;53.256;8.198;2023-08-06T22:01:13;15.80;99.90
47162;DHT22;32921;53.256;8.198;2023-08-06T22:03:40;15.80;99.90
47162;DHT22;32921;53.256;8.198;2023-08-06T22:06:06;15.70;99.90
47162;DHT22;32921;53.256;8.198;2023-08-06T22:08:36;15.60;99.90
47162;DHT22;32921;53.256;8.198;2023-08-06T22:11:02;15.40;99.90
47162;DHT22;32921;53.256;8.198;2023-08-06T22:13:29;15.20;99.90
47162;DHT22;32921;53.256;8.198;2023-08-06T22:15:55;15.20;99.90
47162;DHT22;32921;53.256;8.198;2023-08-06T22:18:20;15.10;99.90
47162;DHT22;32921;53.256;8.198;2023-08-06T22:20:46;15.00;99.90
47162;DHT22;32921;53.256;8.198;2023-08-06T22:23:12;15.00;99.90
